This is the latest recevied weather packets stored in our database for station/object OE5HCE. If no packets are shown the sender has not sent any weather packets the latest 10 day(s).
| Time | Temp. | Humidity | Pressure | Rain* | Wind** | Luminosity | Snow |
|---|---|---|---|---|---|---|---|
| 1787532337 | 13.33° C | 71% | 1021.7 hPa | 0 mm | - | 0 W/m² | - |
| 1787531435 | 13.33° C | 72% | 1021.8 hPa | 0 mm | - | 0 W/m² | - |
| 1787530531 | 13.33° C | 73% | 1021.9 hPa | 0 mm | - | 0 W/m² | - |
| 1787529629 | 13.89° C | 74% | 1022 hPa | 0 mm | - | 0 W/m² | - |
| 1787528729 | 13.89° C | 74% | 1022.1 hPa | 0 mm | - | 0 W/m² | - |
| 1787527830 | 13.89° C | 74% | 1022.2 hPa | 0 mm | - | 0 W/m² | - |
| 1787526936 | 13.89° C | 74% | 1022.3 hPa | 0 mm | - | 0 W/m² | - |
| 1787526027 | 13.89° C | 76% | 1022.2 hPa | 0 mm | - | 0 W/m² | - |
| 1787525167 | 13.89° C | 76% | 1022.2 hPa | 0 mm | - | 0 W/m² | - |
| 1787524221 | 14.44° C | 76% | 1022.2 hPa | 0 mm | - | 0 W/m² | - |
| 1787523335 | 14.44° C | 76% | 1022.2 hPa | 0 mm | - | 0 W/m² | - |
| 1787522418 | 14.44° C | 76% | 1022.2 hPa | 0 mm | - | 0 W/m² | - |
| 1787521518 | 14.44° C | 76% | 1022.1 hPa | 0 mm | - | 0 W/m² | - |
| 1787520623 | 15° C | 77% | 1022.1 hPa | 0 mm | - | 0 W/m² | - |
| 1787519716 | 15° C | 77% | 1022.1 hPa | 0 mm | - | 0 W/m² | - |
| 1787518816 | 15° C | 77% | 1022.2 hPa | 0 mm | - | 0 W/m² | - |
| 1787517919 | 15.56° C | 77% | 1022.2 hPa | 0 mm | - | 0 W/m² | - |
| 1787517015 | 15.56° C | 77% | 1022.2 hPa | 0 mm | - | 0 W/m² | - |
| 1787516131 | 16.11° C | 76% | 1022.3 hPa | 0 mm | - | 0 W/m² | - |
| 1787515213 | 16.67° C | 74% | 1022.2 hPa | 0 mm | - | 0 W/m² | - |
| 1787514314 | 17.22° C | 72% | 1022.2 hPa | 0 mm | - | 0 W/m² | - |
| 1787513418 | 17.78° C | 69% | 1022.2 hPa | 0 mm | - | 0 W/m² | - |
| 1787512512 | 18.89° C | 64% | 1022.2 hPa | 0 mm | - | 0 W/m² | - |
| 1787511611 | 19.44° C | 62% | 1022.1 hPa | 0 mm | - | 0 W/m² | - |
| 1787510712 | 19.44° C | 58% | 1022.1 hPa | 0 mm | - | 0 W/m² | - |
* Rain latest hour (hover to see other rain measurements)
** Current wind speed in m/s (hover to see current wind gust speed)